sensor_id;sensor_type;location;lat;lon;timestamp;pressure;altitude;pressure_sealevel;temperature;humidity
32933;BME280;19444;50.518;10.870;2023-02-20T00:00:36;97263.59;;;5.32;100.00
32933;BME280;19444;50.518;10.870;2023-02-20T00:03:33;97258.34;;;5.42;100.00
32933;BME280;19444;50.518;10.870;2023-02-20T00:06:29;97275.13;;;5.48;100.00
32933;BME280;19444;50.518;10.870;2023-02-20T00:09:26;97266.19;;;5.59;100.00
32933;BME280;19444;50.518;10.870;2023-02-20T00:12:23;97263.47;;;5.49;100.00
32933;BME280;19444;50.518;10.870;2023-02-20T00:15:21;97259.09;;;5.37;100.00
32933;BME280;19444;50.518;10.870;2023-02-20T00:18:18;97258.34;;;5.42;100.00
32933;BME280;19444;50.518;10.870;2023-02-20T00:21:15;97268.44;;;5.40;100.00
32933;BME280;19444;50.518;10.870;2023-02-20T00:24:12;97261.44;;;5.29;100.00
32933;BME280;19444;50.518;10.870;2023-02-20T00:27:10;97279.97;;;5.19;100.00
32933;BME280;19444;50.518;10.870;2023-02-20T00:30:17;97282.69;;;5.24;100.00
32933;BME280;19444;50.518;10.870;2023-02-20T00:33:15;97278.75;;;5.31;100.00
32933;BME280;19444;50.518;10.870;2023-02-20T00:36:18;97258.50;;;5.25;100.00
32933;BME280;19444;50.518;10.870;2023-02-20T00:39:15;97260.88;;;5.22;100.00
32933;BME280;19444;50.518;10.870;2023-02-20T00:42:13;97258.72;;;5.19;100.00
32933;BME280;19444;50.518;10.870;2023-02-20T00:45:11;97260.03;;;5.16;100.00
32933;BME280;19444;50.518;10.870;2023-02-20T00:48:08;97272.84;;;5.24;100.00
32933;BME280;19444;50.518;10.870;2023-02-20T00:51:05;97260.63;;;5.23;100.00
32933;BME280;19444;50.518;10.870;2023-02-20T00:54:02;97270.41;;;5.18;100.00
32933;BME280;19444;50.518;10.870;2023-02-20T00:56:58;97263.53;;;5.22;100.00
32933;BME280;19444;50.518;10.870;2023-02-20T00:59:55;97267.06;;;5.32;100.00
32933;BME280;19444;50.518;10.870;2023-02-20T01:02:52;97267.38;;;5.04;100.00
32933;BME280;19444;50.518;10.870;2023-02-20T01:05:49;97270.91;;;5.14;100.00
32933;BME280;19444;50.518;10.870;2023-02-20T01:08:46;97260.56;;;5.18;100.00
32933;BME280;19444;50.518;10.870;2023-02-20T01:11:44;97260.53;;;5.13;100.00
32933;BME280;19444;50.518;10.870;2023-02-20T01:14:41;97271.00;;;5.25;100.00
32933;BME280;19444;50.518;10.870;2023-02-20T01:17:38;97268.25;;;5.14;100.00
32933;BME280;19444;50.518;10.870;2023-02-20T01:20:35;97261.00;;;5.05;100.00
32933;BME280;19444;50.518;10.870;2023-02-20T01:23:32;97258.63;;;5.08;100.00
32933;BME280;19444;50.518;10.870;2023-02-20T01:26:28;97263.22;;;5.18;100.00
32933;BME280;19444;50.518;10.870;2023-02-20T01:29:25;97263.75;;;5.15;100.00
32933;BME280;19444;50.518;10.870;2023-02-20T01:32:22;97275.91;;;5.11;100.00
32933;BME280;19444;50.518;10.870;2023-02-20T01:35:19;97264.53;;;5.16;100.00
32933;BME280;19444;50.518;10.870;2023-02-20T01:38:16;97255.13;;;5.03;100.00
32933;BME280;19444;50.518;10.870;2023-02-20T01:41:13;97259.47;;;4.82;100.00
32933;BME280;19444;50.518;10.870;2023-02-20T01:44:25;97265.63;;;4.88;100.00
32933;BME280;19444;50.518;10.870;2023-02-20T01:47:23;97255.75;;;4.83;100.00
32933;BME280;19444;50.518;10.870;2023-02-20T01:50:43;97240.25;;;4.70;100.00
32933;BME280;19444;50.518;10.870;2023-02-20T01:53:39;97230.94;;;4.67;100.00
32933;BME280;19444;50.518;10.870;2023-02-20T01:56:37;97242.84;;;4.65;100.00
32933;BME280;19444;50.518;10.870;2023-02-20T01:59:36;97246.59;;;4.69;100.00
32933;BME280;19444;50.518;10.870;2023-02-20T02:02:40;97239.38;;;4.64;100.00
32933;BME280;19444;50.518;10.870;2023-02-20T02:05:42;97242.13;;;4.47;100.00
32933;BME280;19444;50.518;10.870;2023-02-20T02:08:41;97244.84;;;4.52;100.00
32933;BME280;19444;50.518;10.870;2023-02-20T02:11:39;97245.38;;;4.54;100.00
32933;BME280;19444;50.518;10.870;2023-02-20T02:14:36;97253.69;;;4.36;100.00
32933;BME280;19444;50.518;10.870;2023-02-20T02:17:54;97243.50;;;4.28;100.00
32933;BME280;19444;50.518;10.870;2023-02-20T02:21:19;97248.09;;;4.33;100.00
32933;BME280;19444;50.518;10.870;2023-02-20T02:24:35;97249.56;;;4.23;100.00
32933;BME280;19444;50.518;10.870;2023-02-20T02:35:25;97249.03;;;4.21;100.00
32933;BME280;19444;50.518;10.870;2023-02-20T02:41:56;97257.44;;;4.13;100.00
32933;BME280;19444;50.518;10.870;2023-02-20T02:45:00;97256.13;;;4.16;100.00
32933;BME280;19444;50.518;10.870;2023-02-20T02:48:04;97268.34;;;4.17;100.00
32933;BME280;19444;50.518;10.870;2023-02-20T02:51:09;97264.59;;;4.13;100.00
32933;BME280;19444;50.518;10.870;2023-02-20T02:54:15;97249.94;;;4.10;100.00
32933;BME280;19444;50.518;10.870;2023-02-20T02:57:24;97251.63;;;4.16;100.00
32933;BME280;19444;50.518;10.870;2023-02-20T03:00:26;97241.28;;;4.20;100.00
32933;BME280;19444;50.518;10.870;2023-02-20T03:03:30;97229.66;;;4.21;100.00
32933;BME280;19444;50.518;10.870;2023-02-20T03:06:33;97222.97;;;4.18;100.00
32933;BME280;19444;50.518;10.870;2023-02-20T03:09:50;97222.69;;;4.15;100.00
32933;BME280;19444;50.518;10.870;2023-02-20T03:12:49;97215.53;;;4.15;100.00
32933;BME280;19444;50.518;10.870;2023-02-20T03:15:51;97214.41;;;4.33;100.00
32933;BME280;19444;50.518;10.870;2023-02-20T03:18:52;97215.47;;;4.10;100.00
32933;BME280;19444;50.518;10.870;2023-02-20T03:21:52;97234.66;;;3.95;100.00
32933;BME280;19444;50.518;10.870;2023-02-20T03:24:58;97231.13;;;3.90;100.00
32933;BME280;19444;50.518;10.870;2023-02-20T03:28:21;97235.28;;;4.03;100.00
32933;BME280;19444;50.518;10.870;2023-02-20T03:31:47;97237.69;;;4.04;100.00
32933;BME280;19444;50.518;10.870;2023-02-20T03:34:46;97224.47;;;4.09;100.00
32933;BME280;19444;50.518;10.870;2023-02-20T03:38:05;97227.66;;;4.11;100.00
32933;BME280;19444;50.518;10.870;2023-02-20T03:41:22;97220.41;;;4.02;100.00
32933;BME280;19444;50.518;10.870;2023-02-20T03:44:41;97231.25;;;4.00;100.00
32933;BME280;19444;50.518;10.870;2023-02-20T03:47:43;97230.53;;;4.05;100.00
32933;BME280;19444;50.518;10.870;2023-02-20T03:50:41;97221.03;;;4.09;100.00
32933;BME280;19444;50.518;10.870;2023-02-20T03:53:39;97212.44;;;4.02;100.00
32933;BME280;19444;50.518;10.870;2023-02-20T03:56:39;97215.41;;;4.05;100.00
32933;BME280;19444;50.518;10.870;2023-02-20T03:59:51;97218.91;;;4.11;100.00
32933;BME280;19444;50.518;10.870;2023-02-20T04:02:52;97209.59;;;4.08;100.00
32933;BME280;19444;50.518;10.870;2023-02-20T04:05:55;97218.91;;;4.11;100.00
32933;BME280;19444;50.518;10.870;2023-02-20T04:09:10;97219.78;;;4.16;100.00
32933;BME280;19444;50.518;10.870;2023-02-20T04:12:40;97221.81;;;4.09;100.00
32933;BME280;19444;50.518;10.870;2023-02-20T04:15:39;97210.41;;;4.09;100.00
32933;BME280;19444;50.518;10.870;2023-02-20T04:18:36;97217.03;;;4.06;100.00
32933;BME280;19444;50.518;10.870;2023-02-20T04:22:03;97216.59;;;4.14;100.00
32933;BME280;19444;50.518;10.870;2023-02-20T04:25:24;97217.69;;;4.18;100.00
32933;BME280;19444;50.518;10.870;2023-02-20T04:28:27;97224.91;;;4.01;100.00
32933;BME280;19444;50.518;10.870;2023-02-20T04:31:24;97233.44;;;4.03;100.00
32933;BME280;19444;50.518;10.870;2023-02-20T04:34:22;97229.53;;;3.89;100.00
32933;BME280;19444;50.518;10.870;2023-02-20T04:37:19;97230.59;;;3.88;100.00
32933;BME280;19444;50.518;10.870;2023-02-20T04:40:19;97245.81;;;3.76;100.00
32933;BME280;19444;50.518;10.870;2023-02-20T04:43:17;97254.16;;;3.84;100.00
32933;BME280;19444;50.518;10.870;2023-02-20T04:46:14;97238.97;;;3.80;100.00
32933;BME280;19444;50.518;10.870;2023-02-20T04:49:11;97245.94;;;3.86;100.00
32933;BME280;19444;50.518;10.870;2023-02-20T04:52:08;97237.91;;;3.81;100.00
32933;BME280;19444;50.518;10.870;2023-02-20T04:55:05;97239.09;;;3.68;100.00
32933;BME280;19444;50.518;10.870;2023-02-20T04:58:02;97248.16;;;3.55;100.00
32933;BME280;19444;50.518;10.870;2023-02-20T05:00:59;97249.19;;;3.71;100.00
32933;BME280;19444;50.518;10.870;2023-02-20T05:03:56;97238.97;;;3.58;100.00
32933;BME280;19444;50.518;10.870;2023-02-20T05:06:54;97239.81;;;3.63;100.00
32933;BME280;19444;50.518;10.870;2023-02-20T05:09:51;97239.34;;;3.66;100.00
32933;BME280;19444;50.518;10.870;2023-02-20T05:12:48;97234.22;;;3.60;100.00
32933;BME280;19444;50.518;10.870;2023-02-20T05:15:45;97232.09;;;3.62;100.00
32933;BME280;19444;50.518;10.870;2023-02-20T05:18:42;97233.28;;;3.71;100.00
32933;BME280;19444;50.518;10.870;2023-02-20T05:21:44;97225.88;;;3.73;100.00
32933;BME280;19444;50.518;10.870;2023-02-20T05:25:00;97231.09;;;3.85;100.00
32933;BME280;19444;50.518;10.870;2023-02-20T05:27:57;97223.22;;;3.73;100.00
32933;BME280;19444;50.518;10.870;2023-02-20T05:30:54;97217.94;;;3.73;100.00
32933;BME280;19444;50.518;10.870;2023-02-20T05:33:51;97212.75;;;3.61;100.00
32933;BME280;19444;50.518;10.870;2023-02-20T05:36:48;97215.09;;;3.80;100.00
32933;BME280;19444;50.518;10.870;2023-02-20T05:39:46;97233.25;;;3.88;100.00
32933;BME280;19444;50.518;10.870;2023-02-20T05:42:43;97228.78;;;3.71;100.00
32933;BME280;19444;50.518;10.870;2023-02-20T05:45:39;97228.13;;;3.81;100.00
32933;BME280;19444;50.518;10.870;2023-02-20T05:48:36;97228.28;;;3.75;100.00
32933;BME280;19444;50.518;10.870;2023-02-20T05:51:33;97239.09;;;3.90;100.00
32933;BME280;19444;50.518;10.870;2023-02-20T05:54:30;97247.81;;;3.85;100.00
32933;BME280;19444;50.518;10.870;2023-02-20T05:57:27;97244.81;;;3.82;100.00
32933;BME280;19444;50.518;10.870;2023-02-20T06:00:24;97229.16;;;3.80;100.00
32933;BME280;19444;50.518;10.870;2023-02-20T06:03:21;97219.97;;;3.88;100.00
32933;BME280;19444;50.518;10.870;2023-02-20T06:06:19;97219.34;;;3.81;100.00
32933;BME280;19444;50.518;10.870;2023-02-20T06:09:16;97205.56;;;3.79;100.00
32933;BME280;19444;50.518;10.870;2023-02-20T06:12:14;97207.75;;;3.65;100.00
32933;BME280;19444;50.518;10.870;2023-02-20T06:15:11;97198.44;;;3.62;100.00
32933;BME280;19444;50.518;10.870;2023-02-20T06:18:07;97192.19;;;3.68;100.00
32933;BME280;19444;50.518;10.870;2023-02-20T06:21:10;97199.75;;;3.82;100.00
32933;BME280;19444;50.518;10.870;2023-02-20T06:24:07;97198.47;;;3.84;100.00
32933;BME280;19444;50.518;10.870;2023-02-20T06:27:04;97215.41;;;3.83;100.00
32933;BME280;19444;50.518;10.870;2023-02-20T06:30:02;97219.47;;;3.69;100.00
32933;BME280;19444;50.518;10.870;2023-02-20T06:32:59;97219.78;;;3.72;100.00
32933;BME280;19444;50.518;10.870;2023-02-20T06:35:56;97210.84;;;3.79;100.00
32933;BME280;19444;50.518;10.870;2023-02-20T06:38:53;97206.34;;;3.57;100.00
32933;BME280;19444;50.518;10.870;2023-02-20T06:41:53;97228.28;;;3.75;100.00
32933;BME280;19444;50.518;10.870;2023-02-20T06:44:50;97239.63;;;3.70;100.00
32933;BME280;19444;50.518;10.870;2023-02-20T06:47:47;97228.91;;;3.60;100.00
32933;BME280;19444;50.518;10.870;2023-02-20T06:50:44;97225.28;;;3.66;100.00
32933;BME280;19444;50.518;10.870;2023-02-20T06:53:41;97236.19;;;3.69;100.00
32933;BME280;19444;50.518;10.870;2023-02-20T06:56:38;97229.59;;;3.72;100.00
32933;BME280;19444;50.518;10.870;2023-02-20T06:59:35;97233.66;;;3.80;100.00
32933;BME280;19444;50.518;10.870;2023-02-20T07:02:37;97232.34;;;3.60;100.00
32933;BME280;19444;50.518;10.870;2023-02-20T07:05:33;97224.16;;;3.62;100.00
32933;BME280;19444;50.518;10.870;2023-02-20T07:08:30;97208.72;;;3.76;100.00
32933;BME280;19444;50.518;10.870;2023-02-20T07:11:27;97208.25;;;3.84;100.00
32933;BME280;19444;50.518;10.870;2023-02-20T07:14:24;97217.03;;;3.84;100.00
32933;BME280;19444;50.518;10.870;2023-02-20T07:17:21;97232.50;;;3.92;100.00
32933;BME280;19444;50.518;10.870;2023-02-20T07:20:18;97225.22;;;3.83;100.00
32933;BME280;19444;50.518;10.870;2023-02-20T07:23:15;97230.88;;;3.91;100.00
32933;BME280;19444;50.518;10.870;2023-02-20T07:26:21;97219.81;;;3.94;100.00
32933;BME280;19444;50.518;10.870;2023-02-20T07:29:18;97222.69;;;4.15;100.00
32933;BME280;19444;50.518;10.870;2023-02-20T07:32:16;97221.19;;;4.02;100.00
32933;BME280;19444;50.518;10.870;2023-02-20T07:35:16;97216.84;;;4.13;100.00
32933;BME280;19444;50.518;10.870;2023-02-20T07:38:13;97215.72;;;4.31;100.00
32933;BME280;19444;50.518;10.870;2023-02-20T07:41:14;97221.38;;;4.17;100.00
32933;BME280;19444;50.518;10.870;2023-02-20T07:44:11;97217.13;;;4.16;100.00
32933;BME280;19444;50.518;10.870;2023-02-20T07:47:10;97210.06;;;4.27;100.00
32933;BME280;19444;50.518;10.870;2023-02-20T07:50:08;97202.81;;;4.44;100.00
32933;BME280;19444;50.518;10.870;2023-02-20T07:53:05;97217.31;;;4.32;100.00
32933;BME280;19444;50.518;10.870;2023-02-20T07:56:04;97213.53;;;4.54;100.00
32933;BME280;19444;50.518;10.870;2023-02-20T07:59:01;97216.50;;;4.58;100.00
32933;BME280;19444;50.518;10.870;2023-02-20T08:01:58;97216.34;;;4.43;100.00
32933;BME280;19444;50.518;10.870;2023-02-20T08:04:55;97216.84;;;4.67;100.00
32933;BME280;19444;50.518;10.870;2023-02-20T08:07:53;97211.06;;;4.75;100.00
32933;BME280;19444;50.518;10.870;2023-02-20T08:10:51;97208.91;;;4.72;100.00
32933;BME280;19444;50.518;10.870;2023-02-20T08:14:05;97215.56;;;4.74;100.00
32933;BME280;19444;50.518;10.870;2023-02-20T08:17:02;97217.09;;;4.97;100.00
32933;BME280;19444;50.518;10.870;2023-02-20T08:19:59;97213.66;;;5.02;100.00
32933;BME280;19444;50.518;10.870;2023-02-20T08:22:56;97209.00;;;5.14;100.00
32933;BME280;19444;50.518;10.870;2023-02-20T08:25:56;97207.47;;;5.23;100.00
32933;BME280;19444;50.518;10.870;2023-02-20T08:28:53;97192.13;;;5.35;100.00
32933;BME280;19444;50.518;10.870;2023-02-20T08:31:50;97196.44;;;5.41;100.00
32933;BME280;19444;50.518;10.870;2023-02-20T08:34:47;97191.84;;;5.32;100.00
32933;BME280;19444;50.518;10.870;2023-02-20T08:37:44;97184.94;;;5.36;100.00
32933;BME280;19444;50.518;10.870;2023-02-20T08:40:41;97190.84;;;5.43;100.00
32933;BME280;19444;50.518;10.870;2023-02-20T08:43:39;97183.25;;;5.20;100.00
32933;BME280;19444;50.518;10.870;2023-02-20T08:46:36;97184.47;;;5.44;100.00
32933;BME280;19444;50.518;10.870;2023-02-20T08:49:33;97185.75;;;5.31;100.00
32933;BME280;19444;50.518;10.870;2023-02-20T08:52:30;97180.13;;;5.28;100.00
32933;BME280;19444;50.518;10.870;2023-02-20T08:55:27;97178.66;;;5.52;100.00
32933;BME280;19444;50.518;10.870;2023-02-20T08:58:25;97158.78;;;5.60;100.00
32933;BME280;19444;50.518;10.870;2023-02-20T09:01:22;97161.69;;;5.58;100.00
32933;BME280;19444;50.518;10.870;2023-02-20T09:04:18;97155.34;;;5.69;100.00
32933;BME280;19444;50.518;10.870;2023-02-20T09:07:17;97157.19;;;5.59;100.00
32933;BME280;19444;50.518;10.870;2023-02-20T09:10:17;97149.94;;;6.17;100.00
32933;BME280;19444;50.518;10.870;2023-02-20T09:13:14;97162.13;;;5.97;100.00
32933;BME280;19444;50.518;10.870;2023-02-20T09:16:14;97153.25;;;5.77;100.00
32933;BME280;19444;50.518;10.870;2023-02-20T09:19:12;97156.69;;;5.72;100.00
32933;BME280;19444;50.518;10.870;2023-02-20T09:22:10;97151.16;;;5.89;100.00
32933;BME280;19444;50.518;10.870;2023-02-20T09:25:10;97147.69;;;5.78;100.00
32933;BME280;19444;50.518;10.870;2023-02-20T09:28:07;97151.44;;;5.87;100.00
32933;BME280;19444;50.518;10.870;2023-02-20T09:31:05;97143.69;;;5.81;100.00
32933;BME280;19444;50.518;10.870;2023-02-20T09:34:02;97151.09;;;5.74;100.00
32933;BME280;19444;50.518;10.870;2023-02-20T09:36:59;97142.41;;;5.88;100.00
32933;BME280;19444;50.518;10.870;2023-02-20T09:39:57;97138.97;;;5.93;100.00
32933;BME280;19444;50.518;10.870;2023-02-20T09:46:19;97124.00;;;5.77;100.00
32933;BME280;19444;50.518;10.870;2023-02-20T09:49:26;97116.53;;;5.74;100.00
32933;BME280;19444;50.518;10.870;2023-02-20T09:52:26;97117.09;;;5.81;100.00
32933;BME280;19444;50.518;10.870;2023-02-20T09:55:31;97112.66;;;6.02;100.00
32933;BME280;19444;50.518;10.870;2023-02-20T09:59:17;97109.22;;;6.06;100.00
32933;BME280;19444;50.518;10.870;2023-02-20T10:05:26;97099.13;;;6.64;100.00
32933;BME280;19444;50.518;10.870;2023-02-20T10:08:23;97088.47;;;6.74;100.00
32933;BME280;19444;50.518;10.870;2023-02-20T10:11:53;97093.81;;;6.59;100.00
32933;BME280;19444;50.518;10.870;2023-02-20T10:15:06;97093.81;;;6.39;100.00
32933;BME280;19444;50.518;10.870;2023-02-20T10:22:01;97079.97;;;6.62;100.00
32933;BME280;19444;50.518;10.870;2023-02-20T10:25:29;97080.75;;;6.37;100.00
32933;BME280;19444;50.518;10.870;2023-02-20T10:28:27;97084.75;;;6.40;100.00
32933;BME280;19444;50.518;10.870;2023-02-20T10:31:39;97075.97;;;6.80;100.00
32933;BME280;19444;50.518;10.870;2023-02-20T10:35:02;97069.47;;;7.11;100.00
32933;BME280;19444;50.518;10.870;2023-02-20T10:38:07;97067.56;;;7.32;100.00
32933;BME280;19444;50.518;10.870;2023-02-20T10:41:27;97057.28;;;6.95;100.00
32933;BME280;19444;50.518;10.870;2023-02-20T10:48:07;97038.81;;;7.79;100.00
32933;BME280;19444;50.518;10.870;2023-02-20T10:51:08;97032.88;;;9.13;100.00
32933;BME280;19444;50.518;10.870;2023-02-20T10:54:21;97025.47;;;9.29;100.00
32933;BME280;19444;50.518;10.870;2023-02-20T10:57:28;97026.94;;;8.92;100.00
32933;BME280;19444;50.518;10.870;2023-02-20T11:00:53;97008.97;;;9.64;100.00
32933;BME280;19444;50.518;10.870;2023-02-20T11:04:11;97013.31;;;9.18;100.00
32933;BME280;19444;50.518;10.870;2023-02-20T11:07:15;97000.97;;;8.45;100.00
32933;BME280;19444;50.518;10.870;2023-02-20T11:10:14;97026.47;;;8.27;100.00
32933;BME280;19444;50.518;10.870;2023-02-20T11:13:17;97008.22;;;8.39;100.00
32933;BME280;19444;50.518;10.870;2023-02-20T11:16:29;97005.47;;;8.49;100.00
32933;BME280;19444;50.518;10.870;2023-02-20T11:19:47;97003.44;;;8.31;100.00
32933;BME280;19444;50.518;10.870;2023-02-20T11:22:47;97003.59;;;8.16;100.00
32933;BME280;19444;50.518;10.870;2023-02-20T11:25:45;96981.69;;;9.01;100.00
32933;BME280;19444;50.518;10.870;2023-02-20T11:28:42;96985.03;;;9.92;100.00
32933;BME280;19444;50.518;10.870;2023-02-20T11:31:39;96984.06;;;10.02;100.00
32933;BME280;19444;50.518;10.870;2023-02-20T11:34:37;96977.97;;;9.96;100.00
32933;BME280;19444;50.518;10.870;2023-02-20T11:37:35;96983.16;;;9.55;100.00
32933;BME280;19444;50.518;10.870;2023-02-20T11:50:18;96950.44;;;9.58;100.00
32933;BME280;19444;50.518;10.870;2023-02-20T11:53:29;96933.00;;;9.98;100.00
32933;BME280;19444;50.518;10.870;2023-02-20T11:56:28;96932.44;;;10.47;100.00
32933;BME280;19444;50.518;10.870;2023-02-20T11:59:29;96922.44;;;10.53;100.00
32933;BME280;19444;50.518;10.870;2023-02-20T12:02:27;96922.16;;;9.89;100.00
32933;BME280;19444;50.518;10.870;2023-02-20T12:05:43;96916.09;;;10.63;100.00
32933;BME280;19444;50.518;10.870;2023-02-20T12:08:53;96913.78;;;10.10;100.00
32933;BME280;19444;50.518;10.870;2023-02-20T12:11:56;96910.91;;;11.07;100.00
32933;BME280;19444;50.518;10.870;2023-02-20T12:14:53;96905.97;;;11.73;100.00
32933;BME280;19444;50.518;10.870;2023-02-20T12:32:25;96893.53;;;10.04;100.00
32933;BME280;19444;50.518;10.870;2023-02-20T12:35:34;96901.66;;;9.47;100.00
32933;BME280;19444;50.518;10.870;2023-02-20T12:39:02;96889.19;;;9.75;100.00
32933;BME280;19444;50.518;10.870;2023-02-20T12:53:23;96851.88;;;11.66;100.00
32933;BME280;19444;50.518;10.870;2023-02-20T13:00:01;96839.84;;;12.39;100.00
32933;BME280;19444;50.518;10.870;2023-02-20T13:03:10;96830.81;;;12.35;100.00
32933;BME280;19444;50.518;10.870;2023-02-20T13:06:10;96816.50;;;11.64;100.00
32933;BME280;19444;50.518;10.870;2023-02-20T13:09:27;96827.84;;;11.38;100.00
32933;BME280;19444;50.518;10.870;2023-02-20T13:12:27;96823.16;;;10.31;100.00
32933;BME280;19444;50.518;10.870;2023-02-20T13:19:16;96837.66;;;9.83;100.00
32933;BME280;19444;50.518;10.870;2023-02-20T13:22:15;96825.53;;;10.32;100.00
32933;BME280;19444;50.518;10.870;2023-02-20T13:25:39;96812.78;;;10.43;100.00
32933;BME280;19444;50.518;10.870;2023-02-20T13:28:39;96812.94;;;10.60;100.00
32933;BME280;19444;50.518;10.870;2023-02-20T13:31:50;96806.69;;;11.37;100.00
32933;BME280;19444;50.518;10.870;2023-02-20T13:34:48;96797.00;;;11.27;100.00
32933;BME280;19444;50.518;10.870;2023-02-20T13:37:54;96796.56;;;11.34;100.00
32933;BME280;19444;50.518;10.870;2023-02-20T13:43:51;96799.25;;;11.34;100.00
32933;BME280;19444;50.518;10.870;2023-02-20T13:50:30;96778.19;;;11.05;100.00
32933;BME280;19444;50.518;10.870;2023-02-20T13:53:28;96772.13;;;11.35;100.00
32933;BME280;19444;50.518;10.870;2023-02-20T13:59:36;96767.91;;;10.98;100.00
32933;BME280;19444;50.518;10.870;2023-02-20T14:02:40;96750.78;;;10.72;100.00
32933;BME280;19444;50.518;10.870;2023-02-20T14:05:37;96735.50;;;10.72;100.00
32933;BME280;19444;50.518;10.870;2023-02-20T14:08:41;96722.00;;;11.00;100.00
32933;BME280;19444;50.518;10.870;2023-02-20T14:11:38;96720.16;;;11.09;100.00
32933;BME280;19444;50.518;10.870;2023-02-20T14:14:43;96722.41;;;10.93;100.00
32933;BME280;19444;50.518;10.870;2023-02-20T14:17:42;96722.78;;;11.00;100.00
32933;BME280;19444;50.518;10.870;2023-02-20T14:20:38;96719.38;;;11.08;100.00
32933;BME280;19444;50.518;10.870;2023-02-20T14:23:35;96723.16;;;11.07;100.00
32933;BME280;19444;50.518;10.870;2023-02-20T14:26:33;96718.38;;;11.04;100.00
32933;BME280;19444;50.518;10.870;2023-02-20T14:29:33;96711.66;;;11.07;100.00
32933;BME280;19444;50.518;10.870;2023-02-20T14:32:32;96708.50;;;11.36;100.00
32933;BME280;19444;50.518;10.870;2023-02-20T14:35:48;96705.72;;;10.96;100.00
32933;BME280;19444;50.518;10.870;2023-02-20T14:39:10;96704.63;;;10.97;100.00
32933;BME280;19444;50.518;10.870;2023-02-20T14:42:17;96696.38;;;10.94;100.00
32933;BME280;19444;50.518;10.870;2023-02-20T14:45:23;96690.66;;;11.09;100.00
32933;BME280;19444;50.518;10.870;2023-02-20T14:48:29;96708.75;;;10.81;100.00
32933;BME280;19444;50.518;10.870;2023-02-20T14:51:26;96705.94;;;10.86;100.00
32933;BME280;19444;50.518;10.870;2023-02-20T14:54:24;96708.38;;;10.96;100.00
32933;BME280;19444;50.518;10.870;2023-02-20T14:57:23;96703.19;;;10.77;100.00
32933;BME280;19444;50.518;10.870;2023-02-20T15:00:37;96735.56;;;10.81;100.00
32933;BME280;19444;50.518;10.870;2023-02-20T15:03:34;96719.78;;;10.79;100.00
32933;BME280;19444;50.518;10.870;2023-02-20T15:06:34;96720.88;;;10.78;100.00
32933;BME280;19444;50.518;10.870;2023-02-20T15:09:44;96725.88;;;10.71;100.00
32933;BME280;19444;50.518;10.870;2023-02-20T15:12:41;96720.91;;;10.65;100.00
32933;BME280;19444;50.518;10.870;2023-02-20T15:15:45;96734.81;;;10.67;100.00
32933;BME280;19444;50.518;10.870;2023-02-20T15:18:46;96720.34;;;10.54;100.00
32933;BME280;19444;50.518;10.870;2023-02-20T15:21:57;96710.91;;;10.57;100.00
32933;BME280;19444;50.518;10.870;2023-02-20T15:25:29;96722.91;;;10.59;100.00
32933;BME280;19444;50.518;10.870;2023-02-20T15:28:29;96723.44;;;10.61;100.00
32933;BME280;19444;50.518;10.870;2023-02-20T15:31:27;96718.78;;;10.53;100.00
32933;BME280;19444;50.518;10.870;2023-02-20T15:34:35;96720.19;;;10.37;100.00
32933;BME280;19444;50.518;10.870;2023-02-20T15:37:33;96720.88;;;10.42;100.00
32933;BME280;19444;50.518;10.870;2023-02-20T15:40:44;96709.88;;;10.30;100.00
32933;BME280;19444;50.518;10.870;2023-02-20T15:43:41;96715.53;;;10.29;100.00
32933;BME280;19444;50.518;10.870;2023-02-20T15:46:45;96702.31;;;10.18;100.00
32933;BME280;19444;50.518;10.870;2023-02-20T15:49:42;96695.09;;;10.19;100.00
32933;BME280;19444;50.518;10.870;2023-02-20T15:52:39;96697.19;;;10.08;100.00
32933;BME280;19444;50.518;10.870;2023-02-20T15:55:36;96707.41;;;10.06;100.00
32933;BME280;19444;50.518;10.870;2023-02-20T15:58:36;96707.00;;;9.99;100.00
32933;BME280;19444;50.518;10.870;2023-02-20T16:01:34;96711.97;;;9.92;100.00
32933;BME280;19444;50.518;10.870;2023-02-20T16:04:31;96706.31;;;9.93;100.00
32933;BME280;19444;50.518;10.870;2023-02-20T16:07:28;96711.25;;;9.86;100.00
32933;BME280;19444;50.518;10.870;2023-02-20T16:10:25;96697.09;;;9.72;100.00
32933;BME280;19444;50.518;10.870;2023-02-20T16:13:35;96711.03;;;9.69;100.00
32933;BME280;19444;50.518;10.870;2023-02-20T16:16:43;96705.38;;;9.43;100.00
32933;BME280;19444;50.518;10.870;2023-02-20T16:19:40;96700.94;;;9.52;100.00
32933;BME280;19444;50.518;10.870;2023-02-20T16:22:38;96700.81;;;9.44;100.00
32933;BME280;19444;50.518;10.870;2023-02-20T16:25:35;96688.66;;;9.51;100.00
32933;BME280;19444;50.518;10.870;2023-02-20T16:28:32;96694.28;;;9.50;100.00
32933;BME280;19444;50.518;10.870;2023-02-20T16:34:53;96699.91;;;9.34;100.00
32933;BME280;19444;50.518;10.870;2023-02-20T16:37:50;96704.75;;;9.32;100.00
32933;BME280;19444;50.518;10.870;2023-02-20T16:40:47;96717.19;;;9.23;100.00
32933;BME280;19444;50.518;10.870;2023-02-20T16:43:50;96730.19;;;9.30;100.00
32933;BME280;19444;50.518;10.870;2023-02-20T16:46:47;96711.00;;;9.28;100.00
32933;BME280;19444;50.518;10.870;2023-02-20T16:49:45;96714.38;;;9.33;100.00
32933;BME280;19444;50.518;10.870;2023-02-20T16:52:42;96733.84;;;9.20;100.00
32933;BME280;19444;50.518;10.870;2023-02-20T16:55:40;96728.72;;;9.05;100.00
32933;BME280;19444;50.518;10.870;2023-02-20T16:58:40;96727.28;;;9.12;100.00
32933;BME280;19444;50.518;10.870;2023-02-20T17:01:37;96717.91;;;9.15;100.00
32933;BME280;19444;50.518;10.870;2023-02-20T17:04:34;96729.50;;;9.24;100.00
32933;BME280;19444;50.518;10.870;2023-02-20T17:07:31;96715.03;;;9.25;100.00